sensor_id;sensor_type;location;lat;lon;timestamp;P1;durP1;ratioP1;P2;durP2;ratioP2
10884;SDS011;5495;53.252;10.390;2023-02-13T00:00:41;10.30;;;8.27;;
10884;SDS011;5495;53.252;10.390;2023-02-13T00:03:14;16.73;;;9.67;;
10884;SDS011;5495;53.252;10.390;2023-02-13T00:05:41;13.67;;;9.27;;
10884;SDS011;5495;53.252;10.390;2023-02-13T00:08:09;12.03;;;8.73;;
10884;SDS011;5495;53.252;10.390;2023-02-13T00:10:43;15.13;;;9.30;;
10884;SDS011;5495;53.252;10.390;2023-02-13T00:13:12;13.37;;;10.13;;
10884;SDS011;5495;53.252;10.390;2023-02-13T00:15:39;15.83;;;10.10;;
10884;SDS011;5495;53.252;10.390;2023-02-13T00:18:11;18.27;;;9.60;;
10884;SDS011;5495;53.252;10.390;2023-02-13T00:20:56;13.83;;;9.10;;
10884;SDS011;5495;53.252;10.390;2023-02-13T00:23:26;11.77;;;9.30;;
10884;SDS011;5495;53.252;10.390;2023-02-13T00:25:56;15.97;;;10.67;;
10884;SDS011;5495;53.252;10.390;2023-02-13T00:28:35;15.10;;;11.00;;
10884;SDS011;5495;53.252;10.390;2023-02-13T00:31:05;14.60;;;9.80;;
10884;SDS011;5495;53.252;10.390;2023-02-13T00:33:42;16.93;;;10.50;;
10884;SDS011;5495;53.252;10.390;2023-02-13T00:36:12;15.90;;;10.87;;
10884;SDS011;5495;53.252;10.390;2023-02-13T00:38:46;19.90;;;11.30;;
10884;SDS011;5495;53.252;10.390;2023-02-13T00:41:23;19.40;;;12.00;;
10884;SDS011;5495;53.252;10.390;2023-02-13T00:43:54;13.70;;;10.63;;
10884;SDS011;5495;53.252;10.390;2023-02-13T00:46:21;18.33;;;11.50;;
10884;SDS011;5495;53.252;10.390;2023-02-13T00:48:49;21.03;;;12.50;;
10884;SDS011;5495;53.252;10.390;2023-02-13T00:51:30;18.47;;;12.20;;
10884;SDS011;5495;53.252;10.390;2023-02-13T00:53:57;18.57;;;11.37;;
10884;SDS011;5495;53.252;10.390;2023-02-13T00:56:26;16.03;;;11.43;;
10884;SDS011;5495;53.252;10.390;2023-02-13T00:58:56;15.77;;;11.00;;
10884;SDS011;5495;53.252;10.390;2023-02-13T01:01:29;17.73;;;11.33;;
10884;SDS011;5495;53.252;10.390;2023-02-13T01:03:58;15.57;;;10.97;;
10884;SDS011;5495;53.252;10.390;2023-02-13T01:06:26;17.23;;;11.37;;
10884;SDS011;5495;53.252;10.390;2023-02-13T01:08:54;16.53;;;11.43;;
10884;SDS011;5495;53.252;10.390;2023-02-13T01:11:22;20.50;;;11.73;;
10884;SDS011;5495;53.252;10.390;2023-02-13T01:13:52;22.47;;;12.17;;
10884;SDS011;5495;53.252;10.390;2023-02-13T01:16:25;20.70;;;12.00;;
10884;SDS011;5495;53.252;10.390;2023-02-13T01:18:53;17.67;;;10.93;;
10884;SDS011;5495;53.252;10.390;2023-02-13T01:21:20;22.73;;;13.27;;
10884;SDS011;5495;53.252;10.390;2023-02-13T01:23:48;19.83;;;11.97;;
10884;SDS011;5495;53.252;10.390;2023-02-13T01:26:16;17.03;;;11.53;;
10884;SDS011;5495;53.252;10.390;2023-02-13T01:28:46;17.23;;;11.60;;
10884;SDS011;5495;53.252;10.390;2023-02-13T01:31:17;20.23;;;11.37;;
10884;SDS011;5495;53.252;10.390;2023-02-13T01:33:46;20.20;;;12.60;;
10884;SDS011;5495;53.252;10.390;2023-02-13T01:36:16;20.70;;;12.03;;
10884;SDS011;5495;53.252;10.390;2023-02-13T01:38:44;15.53;;;11.30;;
10884;SDS011;5495;53.252;10.390;2023-02-13T01:41:13;19.30;;;10.20;;
10884;SDS011;5495;53.252;10.390;2023-02-13T01:43:45;19.23;;;11.27;;
10884;SDS011;5495;53.252;10.390;2023-02-13T01:46:19;16.53;;;10.60;;
10884;SDS011;5495;53.252;10.390;2023-02-13T01:48:50;20.50;;;11.43;;
10884;SDS011;5495;53.252;10.390;2023-02-13T01:51:21;16.40;;;10.77;;
10884;SDS011;5495;53.252;10.390;2023-02-13T01:53:57;19.03;;;11.50;;
10884;SDS011;5495;53.252;10.390;2023-02-13T01:56:39;17.40;;;10.13;;
10884;SDS011;5495;53.252;10.390;2023-02-13T01:59:16;14.33;;;10.13;;
10884;SDS011;5495;53.252;10.390;2023-02-13T02:01:45;18.60;;;10.77;;
10884;SDS011;5495;53.252;10.390;2023-02-13T02:04:15;17.10;;;10.17;;
10884;SDS011;5495;53.252;10.390;2023-02-13T02:06:47;16.47;;;10.37;;
10884;SDS011;5495;53.252;10.390;2023-02-13T02:09:18;21.63;;;10.03;;
10884;SDS011;5495;53.252;10.390;2023-02-13T02:14:37;16.73;;;10.40;;
10884;SDS011;5495;53.252;10.390;2023-02-13T02:17:06;16.03;;;9.80;;
10884;SDS011;5495;53.252;10.390;2023-02-13T02:19:46;18.43;;;11.03;;
10884;SDS011;5495;53.252;10.390;2023-02-13T02:22:23;16.77;;;11.10;;
10884;SDS011;5495;53.252;10.390;2023-02-13T02:28:34;14.67;;;9.40;;
10884;SDS011;5495;53.252;10.390;2023-02-13T02:34:52;16.67;;;10.10;;
10884;SDS011;5495;53.252;10.390;2023-02-13T02:37:28;17.40;;;10.37;;
10884;SDS011;5495;53.252;10.390;2023-02-13T02:40:09;15.37;;;9.77;;
10884;SDS011;5495;53.252;10.390;2023-02-13T02:42:49;16.13;;;9.40;;
10884;SDS011;5495;53.252;10.390;2023-02-13T02:45:32;21.27;;;10.50;;
10884;SDS011;5495;53.252;10.390;2023-02-13T02:48:06;15.07;;;9.10;;
10884;SDS011;5495;53.252;10.390;2023-02-13T02:51:00;16.10;;;9.83;;
10884;SDS011;5495;53.252;10.390;2023-02-13T02:53:36;15.13;;;9.87;;
10884;SDS011;5495;53.252;10.390;2023-02-13T02:56:09;15.70;;;9.77;;
10884;SDS011;5495;53.252;10.390;2023-02-13T02:58:46;15.10;;;9.50;;
10884;SDS011;5495;53.252;10.390;2023-02-13T03:01:34;16.00;;;10.00;;
10884;SDS011;5495;53.252;10.390;2023-02-13T03:04:35;15.07;;;9.63;;
10884;SDS011;5495;53.252;10.390;2023-02-13T03:07:24;16.50;;;9.43;;
10884;SDS011;5495;53.252;10.390;2023-02-13T03:09:52;16.40;;;9.90;;
10884;SDS011;5495;53.252;10.390;2023-02-13T03:12:44;14.90;;;9.30;;
10884;SDS011;5495;53.252;10.390;2023-02-13T03:15:33;21.73;;;9.03;;
10884;SDS011;5495;53.252;10.390;2023-02-13T03:18:22;17.03;;;9.63;;
10884;SDS011;5495;53.252;10.390;2023-02-13T03:21:09;13.77;;;9.30;;
10884;SDS011;5495;53.252;10.390;2023-02-13T03:24:01;12.70;;;9.20;;
10884;SDS011;5495;53.252;10.390;2023-02-13T03:29:39;11.93;;;7.67;;
10884;SDS011;5495;53.252;10.390;2023-02-13T03:32:33;16.27;;;8.90;;
10884;SDS011;5495;53.252;10.390;2023-02-13T03:35:15;13.27;;;8.53;;
10884;SDS011;5495;53.252;10.390;2023-02-13T03:38:13;13.77;;;8.83;;
10884;SDS011;5495;53.252;10.390;2023-02-13T03:40:52;12.77;;;8.30;;
10884;SDS011;5495;53.252;10.390;2023-02-13T03:43:41;11.20;;;7.93;;
10884;SDS011;5495;53.252;10.390;2023-02-13T03:46:23;12.10;;;7.50;;
10884;SDS011;5495;53.252;10.390;2023-02-13T03:48:55;13.03;;;7.83;;
10884;SDS011;5495;53.252;10.390;2023-02-13T03:51:42;11.93;;;8.10;;
10884;SDS011;5495;53.252;10.390;2023-02-13T03:57:35;12.10;;;7.97;;
10884;SDS011;5495;53.252;10.390;2023-02-13T04:00:23;13.57;;;8.37;;
10884;SDS011;5495;53.252;10.390;2023-02-13T04:02:54;11.93;;;8.17;;
10884;SDS011;5495;53.252;10.390;2023-02-13T04:05:29;11.80;;;7.97;;
10884;SDS011;5495;53.252;10.390;2023-02-13T04:08:00;13.70;;;7.97;;
10884;SDS011;5495;53.252;10.390;2023-02-13T04:10:30;15.03;;;8.63;;
10884;SDS011;5495;53.252;10.390;2023-02-13T04:13:05;12.40;;;7.93;;
10884;SDS011;5495;53.252;10.390;2023-02-13T04:15:40;12.13;;;8.07;;
10884;SDS011;5495;53.252;10.390;2023-02-13T04:18:12;10.57;;;7.57;;
10884;SDS011;5495;53.252;10.390;2023-02-13T04:20:43;9.50;;;7.10;;
10884;SDS011;5495;53.252;10.390;2023-02-13T04:23:11;11.67;;;8.07;;
10884;SDS011;5495;53.252;10.390;2023-02-13T04:25:40;15.60;;;7.63;;
10884;SDS011;5495;53.252;10.390;2023-02-13T04:28:13;12.27;;;7.63;;
10884;SDS011;5495;53.252;10.390;2023-02-13T04:30:42;17.37;;;8.30;;
10884;SDS011;5495;53.252;10.390;2023-02-13T04:33:10;10.50;;;7.47;;
10884;SDS011;5495;53.252;10.390;2023-02-13T04:35:37;12.40;;;7.90;;
10884;SDS011;5495;53.252;10.390;2023-02-13T04:38:05;15.30;;;8.20;;
10884;SDS011;5495;53.252;10.390;2023-02-13T04:40:33;12.10;;;7.77;;
10884;SDS011;5495;53.252;10.390;2023-02-13T04:43:01;11.67;;;7.63;;
10884;SDS011;5495;53.252;10.390;2023-02-13T04:45:29;10.93;;;7.57;;
10884;SDS011;5495;53.252;10.390;2023-02-13T04:47:57;10.83;;;6.93;;
10884;SDS011;5495;53.252;10.390;2023-02-13T04:50:24;12.20;;;6.97;;
10884;SDS011;5495;53.252;10.390;2023-02-13T04:52:52;11.77;;;7.67;;
10884;SDS011;5495;53.252;10.390;2023-02-13T04:55:20;10.77;;;6.97;;
10884;SDS011;5495;53.252;10.390;2023-02-13T04:57:49;12.77;;;7.20;;
10884;SDS011;5495;53.252;10.390;2023-02-13T05:00:18;16.37;;;8.13;;
10884;SDS011;5495;53.252;10.390;2023-02-13T05:02:47;12.20;;;6.77;;
10884;SDS011;5495;53.252;10.390;2023-02-13T05:05:15;10.20;;;7.40;;
10884;SDS011;5495;53.252;10.390;2023-02-13T05:07:42;9.00;;;6.70;;
10884;SDS011;5495;53.252;10.390;2023-02-13T05:13:11;12.37;;;7.63;;
10884;SDS011;5495;53.252;10.390;2023-02-13T05:15:40;9.13;;;5.73;;
10884;SDS011;5495;53.252;10.390;2023-02-13T05:18:09;8.73;;;7.17;;
10884;SDS011;5495;53.252;10.390;2023-02-13T05:20:46;12.50;;;6.60;;
10884;SDS011;5495;53.252;10.390;2023-02-13T05:23:33;11.30;;;7.00;;
10884;SDS011;5495;53.252;10.390;2023-02-13T05:26:05;9.60;;;6.47;;
10884;SDS011;5495;53.252;10.390;2023-02-13T05:28:34;10.70;;;6.73;;
10884;SDS011;5495;53.252;10.390;2023-02-13T05:31:25;11.13;;;7.43;;
10884;SDS011;5495;53.252;10.390;2023-02-13T05:33:53;9.07;;;6.33;;
10884;SDS011;5495;53.252;10.390;2023-02-13T05:36:21;12.10;;;7.20;;
10884;SDS011;5495;53.252;10.390;2023-02-13T05:38:50;8.27;;;6.30;;
10884;SDS011;5495;53.252;10.390;2023-02-13T05:41:17;11.20;;;7.47;;
10884;SDS011;5495;53.252;10.390;2023-02-13T05:43:44;9.77;;;5.90;;
10884;SDS011;5495;53.252;10.390;2023-02-13T05:46:26;9.10;;;6.80;;
10884;SDS011;5495;53.252;10.390;2023-02-13T05:48:55;12.93;;;6.50;;
10884;SDS011;5495;53.252;10.390;2023-02-13T05:51:22;9.27;;;6.13;;
10884;SDS011;5495;53.252;10.390;2023-02-13T05:53:52;11.13;;;6.67;;
10884;SDS011;5495;53.252;10.390;2023-02-13T05:56:22;10.17;;;6.60;;
10884;SDS011;5495;53.252;10.390;2023-02-13T05:58:50;13.73;;;6.37;;
10884;SDS011;5495;53.252;10.390;2023-02-13T06:01:18;9.50;;;7.10;;
10884;SDS011;5495;53.252;10.390;2023-02-13T06:03:50;9.33;;;6.70;;
10884;SDS011;5495;53.252;10.390;2023-02-13T06:06:19;10.53;;;6.03;;
10884;SDS011;5495;53.252;10.390;2023-02-13T06:08:47;10.57;;;6.67;;
10884;SDS011;5495;53.252;10.390;2023-02-13T06:11:24;9.30;;;6.17;;
10884;SDS011;5495;53.252;10.390;2023-02-13T06:13:52;9.43;;;6.20;;
10884;SDS011;5495;53.252;10.390;2023-02-13T06:16:19;9.70;;;6.87;;
10884;SDS011;5495;53.252;10.390;2023-02-13T06:18:50;9.97;;;6.60;;
10884;SDS011;5495;53.252;10.390;2023-02-13T06:21:18;10.43;;;7.00;;
10884;SDS011;5495;53.252;10.390;2023-02-13T06:23:46;10.67;;;6.53;;
10884;SDS011;5495;53.252;10.390;2023-02-13T06:26:13;7.80;;;5.90;;
10884;SDS011;5495;53.252;10.390;2023-02-13T06:28:43;10.20;;;6.23;;
10884;SDS011;5495;53.252;10.390;2023-02-13T06:31:13;10.20;;;6.07;;
10884;SDS011;5495;53.252;10.390;2023-02-13T06:33:41;13.63;;;6.67;;
10884;SDS011;5495;53.252;10.390;2023-02-13T06:36:08;9.33;;;6.43;;
10884;SDS011;5495;53.252;10.390;2023-02-13T06:38:37;14.87;;;6.80;;
10884;SDS011;5495;53.252;10.390;2023-02-13T06:41:18;8.70;;;6.53;;
10884;SDS011;5495;53.252;10.390;2023-02-13T06:43:45;9.03;;;6.67;;
10884;SDS011;5495;53.252;10.390;2023-02-13T06:46:13;11.13;;;6.83;;
10884;SDS011;5495;53.252;10.390;2023-02-13T06:48:42;10.63;;;6.70;;
10884;SDS011;5495;53.252;10.390;2023-02-13T06:51:12;11.47;;;6.70;;
10884;SDS011;5495;53.252;10.390;2023-02-13T06:53:43;11.07;;;6.80;;
10884;SDS011;5495;53.252;10.390;2023-02-13T06:56:18;10.57;;;6.93;;
10884;SDS011;5495;53.252;10.390;2023-02-13T06:58:46;8.60;;;6.83;;
10884;SDS011;5495;53.252;10.390;2023-02-13T07:01:13;11.53;;;6.13;;
10884;SDS011;5495;53.252;10.390;2023-02-13T07:03:43;10.13;;;6.03;;
10884;SDS011;5495;53.252;10.390;2023-02-13T07:06:18;8.63;;;6.17;;
10884;SDS011;5495;53.252;10.390;2023-02-13T07:08:53;9.90;;;6.47;;
10884;SDS011;5495;53.252;10.390;2023-02-13T07:11:23;7.63;;;6.30;;
10884;SDS011;5495;53.252;10.390;2023-02-13T07:13:51;10.60;;;6.43;;
10884;SDS011;5495;53.252;10.390;2023-02-13T07:16:27;9.70;;;7.20;;
10884;SDS011;5495;53.252;10.390;2023-02-13T07:18:56;11.90;;;7.60;;
10884;SDS011;5495;53.252;10.390;2023-02-13T07:21:25;9.83;;;7.07;;
10884;SDS011;5495;53.252;10.390;2023-02-13T07:23:55;11.20;;;7.77;;
10884;SDS011;5495;53.252;10.390;2023-02-13T07:26:37;10.17;;;7.50;;
10884;SDS011;5495;53.252;10.390;2023-02-13T07:29:07;9.23;;;6.53;;
10884;SDS011;5495;53.252;10.390;2023-02-13T07:31:46;10.10;;;6.73;;
10884;SDS011;5495;53.252;10.390;2023-02-13T07:34:14;11.53;;;7.37;;
10884;SDS011;5495;53.252;10.390;2023-02-13T07:36:41;13.30;;;6.53;;
10884;SDS011;5495;53.252;10.390;2023-02-13T07:39:10;12.17;;;6.20;;
10884;SDS011;5495;53.252;10.390;2023-02-13T07:41:43;10.43;;;6.87;;
10884;SDS011;5495;53.252;10.390;2023-02-13T07:44:11;11.97;;;7.47;;
10884;SDS011;5495;53.252;10.390;2023-02-13T07:46:38;9.57;;;6.60;;
10884;SDS011;5495;53.252;10.390;2023-02-13T07:49:06;15.03;;;6.70;;
10884;SDS011;5495;53.252;10.390;2023-02-13T07:51:39;11.23;;;6.30;;
10884;SDS011;5495;53.252;10.390;2023-02-13T08:59:15;18.23;;;10.73;;
10884;SDS011;5495;53.252;10.390;2023-02-13T09:04:47;15.00;;;10.30;;
10884;SDS011;5495;53.252;10.390;2023-02-13T09:07:23;17.63;;;10.43;;
10884;SDS011;5495;53.252;10.390;2023-02-13T09:10:13;15.77;;;10.67;;
10884;SDS011;5495;53.252;10.390;2023-02-13T09:13:13;24.67;;;10.07;;
10884;SDS011;5495;53.252;10.390;2023-02-13T09:22:14;17.93;;;10.07;;
10884;SDS011;5495;53.252;10.390;2023-02-13T09:24:49;15.37;;;10.80;;
10884;SDS011;5495;53.252;10.390;2023-02-13T09:27:33;18.10;;;11.27;;
10884;SDS011;5495;53.252;10.390;2023-02-13T09:33:01;15.33;;;10.57;;
10884;SDS011;5495;53.252;10.390;2023-02-13T09:35:38;15.23;;;9.63;;
10884;SDS011;5495;53.252;10.390;2023-02-13T09:38:19;17.90;;;10.97;;
10884;SDS011;5495;53.252;10.390;2023-02-13T09:40:52;19.07;;;10.87;;
10884;SDS011;5495;53.252;10.390;2023-02-13T09:43:42;16.30;;;10.63;;
10884;SDS011;5495;53.252;10.390;2023-02-13T09:46:20;19.37;;;11.17;;
10884;SDS011;5495;53.252;10.390;2023-02-13T09:49:05;19.63;;;11.07;;
10884;SDS011;5495;53.252;10.390;2023-02-13T09:51:54;18.90;;;11.53;;
10884;SDS011;5495;53.252;10.390;2023-02-13T09:54:49;15.37;;;10.80;;
10884;SDS011;5495;53.252;10.390;2023-02-13T09:57:27;16.83;;;9.97;;
10884;SDS011;5495;53.252;10.390;2023-02-13T10:00:02;18.17;;;10.90;;
10884;SDS011;5495;53.252;10.390;2023-02-13T10:05:52;16.70;;;10.57;;
10884;SDS011;5495;53.252;10.390;2023-02-13T10:08:36;14.57;;;9.77;;
10884;SDS011;5495;53.252;10.390;2023-02-13T10:11:24;17.33;;;10.80;;
10884;SDS011;5495;53.252;10.390;2023-02-13T10:14:14;17.77;;;10.80;;
10884;SDS011;5495;53.252;10.390;2023-02-13T10:16:44;16.93;;;10.77;;
10884;SDS011;5495;53.252;10.390;2023-02-13T10:19:22;14.97;;;10.47;;
10884;SDS011;5495;53.252;10.390;2023-02-13T10:22:04;16.93;;;10.60;;
10884;SDS011;5495;53.252;10.390;2023-02-13T10:24:39;15.40;;;10.67;;
10884;SDS011;5495;53.252;10.390;2023-02-13T10:27:14;15.80;;;9.57;;
10884;SDS011;5495;53.252;10.390;2023-02-13T10:29:58;17.23;;;9.43;;
10884;SDS011;5495;53.252;10.390;2023-02-13T10:32:37;17.30;;;10.70;;
10884;SDS011;5495;53.252;10.390;2023-02-13T10:35:31;14.07;;;9.00;;
10884;SDS011;5495;53.252;10.390;2023-02-13T10:38:13;17.00;;;10.83;;
10884;SDS011;5495;53.252;10.390;2023-02-13T10:43:58;16.57;;;10.37;;
10884;SDS011;5495;53.252;10.390;2023-02-13T10:46:43;16.67;;;10.43;;
10884;SDS011;5495;53.252;10.390;2023-02-13T10:49:31;18.87;;;10.27;;
10884;SDS011;5495;53.252;10.390;2023-02-13T10:58:49;13.20;;;9.03;;
10884;SDS011;5495;53.252;10.390;2023-02-13T11:01:31;15.70;;;9.87;;
10884;SDS011;5495;53.252;10.390;2023-02-13T11:04:16;15.27;;;9.10;;
10884;SDS011;5495;53.252;10.390;2023-02-13T11:06:50;13.13;;;9.53;;
10884;SDS011;5495;53.252;10.390;2023-02-13T11:09:37;13.40;;;9.50;;
10884;SDS011;5495;53.252;10.390;2023-02-13T11:12:30;11.27;;;8.77;;
10884;SDS011;5495;53.252;10.390;2023-02-13T11:15:24;13.97;;;9.13;;
10884;SDS011;5495;53.252;10.390;2023-02-13T11:17:56;12.90;;;9.63;;
10884;SDS011;5495;53.252;10.390;2023-02-13T11:20:38;14.40;;;9.30;;
10884;SDS011;5495;53.252;10.390;2023-02-13T11:26:10;13.03;;;8.67;;
10884;SDS011;5495;53.252;10.390;2023-02-13T11:28:47;13.33;;;9.20;;
10884;SDS011;5495;53.252;10.390;2023-02-13T11:31:33;13.60;;;8.80;;
10884;SDS011;5495;53.252;10.390;2023-02-13T11:34:22;13.27;;;9.40;;
10884;SDS011;5495;53.252;10.390;2023-02-13T11:37:24;15.60;;;9.73;;
10884;SDS011;5495;53.252;10.390;2023-02-13T11:40:02;11.97;;;9.27;;
10884;SDS011;5495;53.252;10.390;2023-02-13T11:43:30;15.87;;;9.80;;
10884;SDS011;5495;53.252;10.390;2023-02-13T11:46:02;13.33;;;9.10;;
10884;SDS011;5495;53.252;10.390;2023-02-13T11:51:51;11.07;;;8.43;;
10884;SDS011;5495;53.252;10.390;2023-02-13T11:54:31;13.73;;;8.80;;
10884;SDS011;5495;53.252;10.390;2023-02-13T11:57:08;15.10;;;8.90;;
10884;SDS011;5495;53.252;10.390;2023-02-13T11:59:50;12.20;;;8.37;;
10884;SDS011;5495;53.252;10.390;2023-02-13T12:02:19;14.07;;;8.73;;
10884;SDS011;5495;53.252;10.390;2023-02-13T12:05:13;11.67;;;8.40;;
10884;SDS011;5495;53.252;10.390;2023-02-13T12:07:46;11.93;;;8.10;;
10884;SDS011;5495;53.252;10.390;2023-02-13T12:10:20;13.17;;;8.40;;
10884;SDS011;5495;53.252;10.390;2023-02-13T12:12:56;12.37;;;8.57;;
10884;SDS011;5495;53.252;10.390;2023-02-13T12:15:32;11.17;;;8.33;;
10884;SDS011;5495;53.252;10.390;2023-02-13T12:18:11;12.07;;;8.80;;
10884;SDS011;5495;53.252;10.390;2023-02-13T12:20:52;15.17;;;9.57;;
10884;SDS011;5495;53.252;10.390;2023-02-13T12:23:37;13.73;;;9.20;;
10884;SDS011;5495;53.252;10.390;2023-02-13T12:26:12;14.97;;;10.00;;
10884;SDS011;5495;53.252;10.390;2023-02-13T12:31:43;14.23;;;9.87;;
10884;SDS011;5495;53.252;10.390;2023-02-13T12:34:26;14.47;;;9.47;;
10884;SDS011;5495;53.252;10.390;2023-02-13T12:37:33;14.77;;;10.03;;
10884;SDS011;5495;53.252;10.390;2023-02-13T12:47:25;15.73;;;10.97;;
10884;SDS011;5495;53.252;10.390;2023-02-13T12:50:11;15.87;;;9.93;;
10884;SDS011;5495;53.252;10.390;2023-02-13T12:53:12;14.70;;;10.37;;
10884;SDS011;5495;53.252;10.390;2023-02-13T12:56:03;16.13;;;9.87;;
10884;SDS011;5495;53.252;10.390;2023-02-13T13:01:48;15.67;;;11.10;;
10884;SDS011;5495;53.252;10.390;2023-02-13T13:04:45;16.13;;;10.63;;
10884;SDS011;5495;53.252;10.390;2023-02-13T13:07:23;13.33;;;10.20;;
10884;SDS011;5495;53.252;10.390;2023-02-13T13:10:26;14.23;;;10.23;;
10884;SDS011;5495;53.252;10.390;2023-02-13T13:13:31;16.87;;;11.27;;
10884;SDS011;5495;53.252;10.390;2023-02-13T13:19:08;16.33;;;10.50;;
10884;SDS011;5495;53.252;10.390;2023-02-13T13:21:52;14.30;;;10.50;;
10884;SDS011;5495;53.252;10.390;2023-02-13T13:24:37;14.57;;;10.90;;
10884;SDS011;5495;53.252;10.390;2023-02-13T13:27:40;16.10;;;11.43;;
10884;SDS011;5495;53.252;10.390;2023-02-13T13:30:12;15.80;;;11.13;;
10884;SDS011;5495;53.252;10.390;2023-02-13T13:36:18;16.00;;;10.60;;
10884;SDS011;5495;53.252;10.390;2023-02-13T13:39:08;15.70;;;11.10;;
10884;SDS011;5495;53.252;10.390;2023-02-13T13:41:50;15.10;;;10.57;;
10884;SDS011;5495;53.252;10.390;2023-02-13T13:44:50;17.37;;;11.37;;
10884;SDS011;5495;53.252;10.390;2023-02-13T13:47:31;14.77;;;10.60;;
10884;SDS011;5495;53.252;10.390;2023-02-13T13:53:11;19.33;;;11.63;;
10884;SDS011;5495;53.252;10.390;2023-02-13T13:58:42;17.63;;;12.13;;
10884;SDS011;5495;53.252;10.390;2023-02-13T14:01:26;19.77;;;12.27;;
10884;SDS011;5495;53.252;10.390;2023-02-13T14:03:55;17.70;;;11.87;;
10884;SDS011;5495;53.252;10.390;2023-02-13T14:07:12;17.47;;;11.83;;
10884;SDS011;5495;53.252;10.390;2023-02-13T14:09:46;19.63;;;12.20;;
10884;SDS011;5495;53.252;10.390;2023-02-13T14:12:36;19.00;;;12.50;;
10884;SDS011;5495;53.252;10.390;2023-02-13T14:18:30;20.93;;;12.40;;
10884;SDS011;5495;53.252;10.390;2023-02-13T14:20:59;19.30;;;12.50;;
10884;SDS011;5495;53.252;10.390;2023-02-13T14:27:15;16.73;;;11.57;;
10884;SDS011;5495;53.252;10.390;2023-02-13T14:29:50;16.30;;;11.97;;
10884;SDS011;5495;53.252;10.390;2023-02-13T14:35:26;17.73;;;12.07;;
10884;SDS011;5495;53.252;10.390;2023-02-13T14:38:05;16.13;;;11.83;;
10884;SDS011;5495;53.252;10.390;2023-02-13T14:44:15;16.27;;;11.97;;
10884;SDS011;5495;53.252;10.390;2023-02-13T14:46:54;17.00;;;11.23;;
10884;SDS011;5495;53.252;10.390;2023-02-13T14:49:26;15.93;;;10.70;;
10884;SDS011;5495;53.252;10.390;2023-02-13T14:52:12;15.63;;;10.67;;
10884;SDS011;5495;53.252;10.390;2023-02-13T14:54:55;14.70;;;10.00;;
10884;SDS011;5495;53.252;10.390;2023-02-13T14:58:06;17.67;;;10.37;;
10884;SDS011;5495;53.252;10.390;2023-02-13T15:00:40;19.13;;;12.60;;
10884;SDS011;5495;53.252;10.390;2023-02-13T15:10:41;18.90;;;12.60;;
10884;SDS011;5495;53.252;10.390;2023-02-13T15:13:16;17.17;;;11.37;;
10884;SDS011;5495;53.252;10.390;2023-02-13T15:15:59;16.30;;;11.53;;
10884;SDS011;5495;53.252;10.390;2023-02-13T15:21:45;19.00;;;10.97;;
10884;SDS011;5495;53.252;10.390;2023-02-13T15:27:29;17.43;;;11.67;;
10884;SDS011;5495;53.252;10.390;2023-02-13T15:36:55;17.30;;;11.77;;
10884;SDS011;5495;53.252;10.390;2023-02-13T15:39:25;19.23;;;12.90;;
10884;SDS011;5495;53.252;10.390;2023-02-13T15:42:13;18.67;;;13.17;;
10884;SDS011;5495;53.252;10.390;2023-02-13T15:45:01;20.63;;;14.20;;
10884;SDS011;5495;53.252;10.390;2023-02-13T15:50:55;18.30;;;12.23;;
10884;SDS011;5495;53.252;10.390;2023-02-13T15:53:57;20.53;;;12.30;;
10884;SDS011;5495;53.252;10.390;2023-02-13T15:56:32;21.03;;;13.40;;
10884;SDS011;5495;53.252;10.390;2023-02-13T15:59:02;22.07;;;13.63;;
10884;SDS011;5495;53.252;10.390;2023-02-13T16:01:45;20.63;;;12.77;;
10884;SDS011;5495;53.252;10.390;2023-02-13T16:04:29;19.57;;;12.10;;
10884;SDS011;5495;53.252;10.390;2023-02-13T16:07:13;21.37;;;13.10;;
10884;SDS011;5495;53.252;10.390;2023-02-13T16:13:13;21.33;;;13.47;;
10884;SDS011;5495;53.252;10.390;2023-02-13T16:16:10;22.33;;;13.73;;
10884;SDS011;5495;53.252;10.390;2023-02-13T16:19:37;20.00;;;11.97;;
10884;SDS011;5495;53.252;10.390;2023-02-13T16:22:57;17.20;;;12.47;;
10884;SDS011;5495;53.252;10.390;2023-02-13T16:25:37;15.00;;;10.17;;
10884;SDS011;5495;53.252;10.390;2023-02-13T16:31:37;19.60;;;10.63;;
10884;SDS011;5495;53.252;10.390;2023-02-13T16:37:57;23.33;;;11.77;;
10884;SDS011;5495;53.252;10.390;2023-02-13T16:44:15;21.70;;;12.30;;
10884;SDS011;5495;53.252;10.390;2023-02-13T16:50:24;20.50;;;13.83;;
10884;SDS011;5495;53.252;10.390;2023-02-13T16:56:09;26.10;;;16.07;;
10884;SDS011;5495;53.252;10.390;2023-02-13T17:02:15;24.13;;;15.27;;
10884;SDS011;5495;53.252;10.390;2023-02-13T17:07:45;26.50;;;17.30;;
10884;SDS011;5495;53.252;10.390;2023-02-13T17:10:35;24.77;;;14.97;;
10884;SDS011;5495;53.252;10.390;2023-02-13T17:13:38;22.73;;;15.20;;
10884;SDS011;5495;53.252;10.390;2023-02-13T17:16:20;24.97;;;14.97;;
10884;SDS011;5495;53.252;10.390;2023-02-13T17:22:51;23.07;;;13.87;;
10884;SDS011;5495;53.252;10.390;2023-02-13T17:25:47;20.63;;;12.57;;
10884;SDS011;5495;53.252;10.390;2023-02-13T17:28:40;22.67;;;13.63;;
10884;SDS011;5495;53.252;10.390;2023-02-13T17:31:16;20.97;;;14.07;;
10884;SDS011;5495;53.252;10.390;2023-02-13T17:34:12;22.20;;;14.90;;
10884;SDS011;5495;53.252;10.390;2023-02-13T17:37:44;29.07;;;16.73;;
10884;SDS011;5495;53.252;10.390;2023-02-13T17:39:34;23.33;;;15.17;;
10884;SDS011;5495;53.252;10.390;2023-02-13T17:42:22;25.00;;;16.00;;
10884;SDS011;5495;53.252;10.390;2023-02-13T17:45:02;28.43;;;17.10;;
10884;SDS011;5495;53.252;10.390;2023-02-13T17:47:37;23.90;;;14.30;;
10884;SDS011;5495;53.252;10.390;2023-02-13T17:50:42;25.77;;;13.90;;
10884;SDS011;5495;53.252;10.390;2023-02-13T17:53:25;20.10;;;13.90;;
10884;SDS011;5495;53.252;10.390;2023-02-13T18:02:37;20.60;;;12.97;;
10884;SDS011;5495;53.252;10.390;2023-02-13T18:05:32;24.57;;;14.27;;
10884;SDS011;5495;53.252;10.390;2023-02-13T18:08:21;21.53;;;13.90;;
10884;SDS011;5495;53.252;10.390;2023-02-13T18:11:04;20.30;;;13.47;;
10884;SDS011;5495;53.252;10.390;2023-02-13T18:13:46;19.10;;;12.73;;
10884;SDS011;5495;53.252;10.390;2023-02-13T18:16:32;25.00;;;14.57;;
10884;SDS011;5495;53.252;10.390;2023-02-13T18:19:39;22.73;;;13.43;;
10884;SDS011;5495;53.252;10.390;2023-02-13T18:22:22;22.63;;;14.43;;
10884;SDS011;5495;53.252;10.390;2023-02-13T18:25:14;20.67;;;13.63;;
10884;SDS011;5495;53.252;10.390;2023-02-13T18:27:53;22.90;;;13.63;;
10884;SDS011;5495;53.252;10.390;2023-02-13T18:30:50;21.80;;;13.50;;
10884;SDS011;5495;53.252;10.390;2023-02-13T18:33:29;22.20;;;13.67;;
10884;SDS011;5495;53.252;10.390;2023-02-13T18:36:00;26.50;;;15.33;;
10884;SDS011;5495;53.252;10.390;2023-02-13T18:38:31;24.93;;;14.97;;
10884;SDS011;5495;53.252;10.390;2023-02-13T18:41:11;29.10;;;16.17;;
10884;SDS011;5495;53.252;10.390;2023-02-13T18:47:36;24.47;;;15.50;;
10884;SDS011;5495;53.252;10.390;2023-02-13T18:50:29;23.43;;;15.07;;
10884;SDS011;5495;53.252;10.390;2023-02-13T18:56:41;22.37;;;13.50;;
10884;SDS011;5495;53.252;10.390;2023-02-13T19:02:51;23.27;;;14.97;;
10884;SDS011;5495;53.252;10.390;2023-02-13T19:08:28;23.50;;;14.13;;
10884;SDS011;5495;53.252;10.390;2023-02-13T19:10:57;23.87;;;15.20;;
10884;SDS011;5495;53.252;10.390;2023-02-13T19:13:32;25.33;;;14.87;;
10884;SDS011;5495;53.252;10.390;2023-02-13T19:16:03;18.63;;;12.83;;
10884;SDS011;5495;53.252;10.390;2023-02-13T19:18:34;22.90;;;13.43;;
10884;SDS011;5495;53.252;10.390;2023-02-13T19:21:05;28.20;;;14.67;;